Time;durP1;ratioP1;P1;durP2;ratioP2;P2;SDS_P1;SDS_P2;PMS_P1;PMS_P2;Temp;Humidity;BMP_temperature;BMP_pressure;BME280_temperature;BME280_humidity;BME280_pressure;Samples;Min_cycle;Max_cycle;Signal;HPM_P1;HPM_P2
2021/09/14 00:01:42;;;;;;;5.57;4.97;;;15.70;99.90;;;;;;5070909;28;20894;-68
2021/09/14 00:04:09;;;;;;;5.73;5.00;;;15.70;99.90;;;;;;5070570;28;20454;-68
2021/09/14 00:06:39;;;;;;;5.13;4.63;;;15.70;99.90;;;;;;5070077;28;20458;-68
2021/09/14 00:09:06;;;;;;;5.40;4.90;;;15.70;99.90;;;;;;5070621;28;20486;-68
2021/09/14 00:11:33;;;;;;;5.10;4.70;;;15.70;99.90;;;;;;5070743;28;20458;-69
2021/09/14 00:14:01;;;;;;;5.50;5.00;;;15.60;99.90;;;;;;5070506;28;20465;-69
2021/09/14 00:16:28;;;;;;;4.90;4.50;;;15.60;99.90;;;;;;5070033;28;20509;-68
2021/09/14 00:18:55;;;;;;;5.33;4.80;;;15.60;99.90;;;;;;5070543;28;20997;-69
2021/09/14 00:21:22;;;;;;;7.53;4.67;;;15.60;99.90;;;;;;5070103;28;20478;-68
2021/09/14 00:23:48;;;;;;;7.80;5.10;;;15.60;99.90;;;;;;5070378;28;20870;-68
2021/09/14 00:26:15;;;;;;;6.03;5.27;;;15.60;99.90;;;;;;5069902;28;20462;-68
2021/09/14 00:28:42;;;;;;;5.40;4.90;;;15.60;99.90;;;;;;5070569;28;20479;-68
2021/09/14 00:31:10;;;;;;;6.83;4.93;;;15.50;99.90;;;;;;5070309;28;20470;-68
2021/09/14 00:33:36;;;;;;;5.23;4.73;;;15.50;99.90;;;;;;5070322;28;20485;-69
2021/09/14 00:36:03;;;;;;;6.70;5.40;;;15.50;99.90;;;;;;5069727;28;20502;-68
2021/09/14 00:38:30;;;;;;;4.90;4.17;;;15.50;99.90;;;;;;5070520;28;20486;-68
2021/09/14 00:40:57;;;;;;;6.20;5.60;;;15.40;99.90;;;;;;5070323;28;20459;-68
2021/09/14 00:43:24;;;;;;;5.50;5.00;;;15.40;99.90;;;;;;5070350;28;20801;-68
2021/09/14 00:45:52;;;;;;;5.50;4.87;;;15.40;99.90;;;;;;5067013;28;20458;-69
2021/09/14 00:48:20;;;;;;;5.27;4.87;;;15.40;99.90;;;;;;5069935;28;20490;-69
2021/09/14 00:50:47;;;;;;;6.03;4.70;;;15.40;99.90;;;;;;5069571;28;20465;-69
2021/09/14 00:53:15;;;;;;;5.23;4.83;;;15.30;99.90;;;;;;5070135;28;20459;-68
2021/09/14 00:55:42;;;;;;;5.20;4.70;;;15.30;99.90;;;;;;5069609;28;20946;-68
2021/09/14 00:58:09;;;;;;;5.40;4.90;;;15.30;99.90;;;;;;5070007;28;20475;-68
2021/09/14 01:00:35;;;;;;;4.87;4.47;;;15.30;99.90;;;;;;5070382;28;20477;-69
2021/09/14 01:03:02;;;;;;;5.47;4.97;;;15.30;99.90;;;;;;5069917;28;20545;-68
2021/09/14 01:05:31;;;;;;;4.60;4.10;;;15.30;99.90;;;;;;5069717;28;20450;-68
2021/09/14 01:07:58;;;;;;;8.80;5.40;;;15.30;99.90;;;;;;5069943;28;20478;-68
2021/09/14 01:10:24;;;;;;;4.97;4.57;;;15.20;99.90;;;;;;5070028;28;20465;-68
2021/09/14 01:12:51;;;;;;;5.00;4.50;;;15.20;99.90;;;;;;5070092;28;20458;-68
2021/09/14 01:15:18;;;;;;;5.20;4.70;;;15.20;99.90;;;;;;5069356;28;20455;-68
2021/09/14 01:17:45;;;;;;;5.23;4.70;;;15.10;99.90;;;;;;5069756;28;20486;-68
2021/09/14 01:20:12;;;;;;;5.50;4.60;;;15.10;99.90;;;;;;5069865;28;20462;-68
2021/09/14 01:22:40;;;;;;;4.80;4.40;;;15.10;99.90;;;;;;5069854;28;20466;-68
2021/09/14 01:25:16;;;;;;;5.53;5.03;;;15.10;99.90;;;;;;5069249;28;20467;-69
2021/09/14 01:27:43;;;;;;;5.23;4.80;;;15.10;99.90;;;;;;5069893;28;20474;-68
2021/09/14 01:30:13;;;;;;;6.20;4.80;;;15.10;99.90;;;;;;5069710;28;20466;-68
2021/09/14 01:32:40;;;;;;;5.13;4.73;;;15.00;99.90;;;;;;5069911;28;20837;-68
2021/09/14 01:35:08;;;;;;;6.00;5.40;;;15.00;99.90;;;;;;5072956;28;20469;-68
2021/09/14 01:37:35;;;;;;;5.67;5.13;;;15.00;99.90;;;;;;5073186;28;20490;-68
2021/09/14 01:40:03;;;;;;;6.50;4.80;;;15.00;99.90;;;;;;5073299;28;20462;-69
2021/09/14 01:42:30;;;;;;;4.83;4.43;;;14.90;99.90;;;;;;5072977;28;20970;-68
2021/09/14 01:44:57;;;;;;;5.80;4.90;;;14.90;99.90;;;;;;5073289;28;20454;-68
2021/09/14 01:47:24;;;;;;;5.30;4.80;;;14.90;99.90;;;;;;5072459;28;20478;-68
2021/09/14 01:49:50;;;;;;;6.30;4.50;;;14.90;99.90;;;;;;5073244;28;20466;-68
2021/09/14 01:52:17;;;;;;;4.83;4.43;;;14.90;99.90;;;;;;5073067;28;20462;-68
2021/09/14 01:54:44;;;;;;;4.83;4.43;;;14.90;99.90;;;;;;5072966;28;20465;-68
2021/09/14 01:57:12;;;;;;;4.90;4.50;;;14.80;99.90;;;;;;5072560;28;20482;-69
2021/09/14 01:59:39;;;;;;;4.57;4.17;;;14.80;99.90;;;;;;5072955;28;20462;-69
2021/09/14 02:02:11;;;;;;;5.50;4.73;;;14.90;99.90;;;;;;5072742;28;20949;-69
2021/09/14 02:04:46;;;;;;;6.97;4.93;;;14.80;99.90;;;;;;5072971;28;20539;-68
2021/09/14 02:07:30;;;;;;;5.57;4.87;;;14.80;99.90;;;;;;5072162;28;20485;-68
2021/09/14 02:30:12;;;;;;;6.80;5.10;;;14.70;99.90;;;;;;5054567;28;20468;-68
2021/09/14 02:59:48;;;;;;;5.60;5.10;;;14.40;99.90;;;;;;5049111;28;20946;-68
2021/09/14 03:02:17;;;;;;;5.17;4.70;;;14.40;99.90;;;;;;5071557;28;21215;-68
2021/09/14 03:04:44;;;;;;;6.17;5.57;;;14.40;99.90;;;;;;5071635;28;20492;-69
2021/09/14 03:07:11;;;;;;;6.33;5.40;;;14.40;99.90;;;;;;5070962;28;20477;-68
2021/09/14 03:09:37;;;;;;;5.10;4.60;;;14.40;99.90;;;;;;5071683;28;20465;-68
2021/09/14 03:12:05;;;;;;;5.87;5.07;;;14.40;99.90;;;;;;5071649;28;20469;-68
2021/09/14 03:14:31;;;;;;;6.43;5.87;;;14.40;99.90;;;;;;5071531;28;20455;-68
2021/09/14 03:16:58;;;;;;;5.43;5.00;;;14.40;99.90;;;;;;5070700;28;20483;-69
2021/09/14 03:19:26;;;;;;;5.40;4.90;;;14.40;99.90;;;;;;5071372;28;20668;-69
2021/09/14 03:21:53;;;;;;;6.80;4.90;;;14.40;99.90;;;;;;5071530;28;20537;-68
2021/09/14 03:24:19;;;;;;;5.43;5.03;;;14.40;99.90;;;;;;5070929;28;20466;-68
2021/09/14 03:26:46;;;;;;;5.30;4.80;;;14.40;99.90;;;;;;5070785;28;20486;-69
2021/09/14 03:29:13;;;;;;;5.23;4.83;;;14.50;99.90;;;;;;5071004;28;20482;-68
2021/09/14 03:31:39;;;;;;;6.00;5.40;;;14.50;99.90;;;;;;5071273;28;20477;-68
2021/09/14 03:34:06;;;;;;;5.30;4.90;;;14.50;99.90;;;;;;5070557;28;20820;-68
2021/09/14 03:36:34;;;;;;;5.53;5.00;;;14.50;99.90;;;;;;5062480;28;20479;-68
2021/09/14 03:39:01;;;;;;;6.07;5.47;;;14.50;99.90;;;;;;5058908;28;21006;-71
2021/09/14 03:41:28;;;;;;;5.63;5.17;;;14.50;99.90;;;;;;5061460;28;20457;-69
2021/09/14 03:43:54;;;;;;;5.90;5.40;;;14.50;99.90;;;;;;5060989;28;20567;-69
2021/09/14 03:46:21;;;;;;;5.50;5.00;;;14.50;99.90;;;;;;5058955;28;20467;-69
2021/09/14 03:48:48;;;;;;;6.07;5.20;;;14.40;99.90;;;;;;5060370;28;20478;-68
2021/09/14 03:51:14;;;;;;;5.80;5.30;;;14.50;99.90;;;;;;5059794;28;20458;-68
2021/09/14 03:53:42;;;;;;;6.20;5.60;;;14.50;99.90;;;;;;5058820;28;21117;-69
2021/09/14 03:56:09;;;;;;;6.47;5.88;;;14.40;99.90;;;;;;5062582;28;20617;-68
2021/09/14 03:58:36;;;;;;;5.87;5.23;;;14.40;99.90;;;;;;5070255;28;20614;-68
2021/09/14 04:01:03;;;;;;;6.20;5.60;;;14.40;99.90;;;;;;5070747;28;20458;-68
2021/09/14 04:03:39;;;;;;;5.63;4.83;;;14.40;99.90;;;;;;5070730;28;20470;-68
2021/09/14 04:08:55;;;;;;;5.83;5.33;;;14.40;99.90;;;;;;5069559;28;20469;-68
2021/09/14 04:11:23;;;;;;;6.23;5.23;;;14.40;99.90;;;;;;5070762;28;20458;-68
2021/09/14 04:13:50;;;;;;;6.43;5.70;;;14.40;99.90;;;;;;5069855;28;20887;-68
2021/09/14 04:16:17;;;;;;;8.97;5.50;;;14.40;99.90;;;;;;5059317;28;20462;-68
2021/09/14 04:18:44;;;;;;;6.07;5.47;;;14.40;99.90;;;;;;5059607;28;20479;-68
2021/09/14 04:21:11;;;;;;;6.23;5.50;;;14.40;99.90;;;;;;5061065;28;20459;-68
2021/09/14 04:23:38;;;;;;;6.30;5.80;;;14.40;99.90;;;;;;5059959;28;20965;-68
2021/09/14 04:26:07;;;;;;;6.10;5.60;;;14.30;99.90;;;;;;5058874;28;20474;-68
2021/09/14 04:28:33;;;;;;;6.30;5.77;;;14.30;99.90;;;;;;5058561;28;20471;-68
2021/09/14 04:31:00;;;;;;;6.23;5.63;;;14.30;99.90;;;;;;5140035;23;20871;-72
2021/09/14 04:33:27;;;;;;;6.40;5.80;;;14.30;99.90;;;;;;5068429;28;20447;-72
2021/09/14 04:35:54;;;;;;;7.37;6.67;;;14.30;99.90;;;;;;5068090;28;20461;-71
2021/09/14 04:38:21;;;;;;;6.17;5.57;;;14.30;99.90;;;;;;5069966;28;20497;-72
2021/09/14 04:40:47;;;;;;;6.13;5.63;;;14.30;99.90;;;;;;5069976;28;20485;-72
2021/09/14 04:43:16;;;;;;;6.10;5.50;;;14.30;99.90;;;;;;5070116;28;20466;-72
2021/09/14 04:45:42;;;;;;;6.80;6.10;;;14.30;99.90;;;;;;5069484;28;20910;-72
2021/09/14 04:48:10;;;;;;;7.80;7.10;;;14.30;99.90;;;;;;5069875;28;21024;-72
2021/09/14 04:50:37;;;;;;;6.07;5.57;;;14.20;99.90;;;;;;5070169;28;20828;-72
2021/09/14 04:53:04;;;;;;;6.77;6.07;;;14.20;99.90;;;;;;5069780;28;20813;-72
2021/09/14 04:55:30;;;;;;;10.17;6.60;;;14.20;99.90;;;;;;5069456;28;20464;-72
2021/09/14 04:57:57;;;;;;;7.03;6.43;;;14.20;99.90;;;;;;5069564;28;20867;-72
2021/09/14 05:00:26;;;;;;;6.60;5.93;;;14.20;99.90;;;;;;5070092;28;20463;-72
2021/09/14 05:02:53;;;;;;;7.10;5.87;;;14.20;99.90;;;;;;5069728;28;20470;-72
2021/09/14 05:05:19;;;;;;;7.80;5.83;;;14.20;99.90;;;;;;5069932;28;20553;-72
2021/09/14 05:07:46;;;;;;;7.13;6.13;;;14.30;99.90;;;;;;5069139;28;20470;-72
2021/09/14 05:10:13;;;;;;;7.50;6.83;;;14.20;99.90;;;;;;5073082;28;20464;-72
2021/09/14 05:12:40;;;;;;;6.60;5.80;;;14.20;99.90;;;;;;5072924;28;20465;-72
2021/09/14 05:15:08;;;;;;;6.80;6.00;;;14.30;99.90;;;;;;5073527;28;20465;-72
2021/09/14 05:17:36;;;;;;;6.63;5.93;;;14.20;99.90;;;;;;5071064;28;20487;-72
2021/09/14 05:20:03;;;;;;;6.50;6.00;;;14.30;99.90;;;;;;5069932;28;20454;-72
2021/09/14 05:22:32;;;;;;;7.50;6.50;;;14.30;99.90;;;;;;5068930;28;20454;-72
2021/09/14 05:24:59;;;;;;;7.20;6.40;;;14.20;99.90;;;;;;5070812;28;20666;-72
2021/09/14 05:27:26;;;;;;;8.83;6.87;;;14.20;99.90;;;;;;5070359;28;20481;-72
2021/09/14 05:29:53;;;;;;;8.33;6.73;;;14.30;99.90;;;;;;5072898;28;20462;-72
2021/09/14 05:32:20;;;;;;;6.73;6.13;;;14.30;99.90;;;;;;5073151;28;20473;-72
2021/09/14 05:34:49;;;;;;;6.83;6.17;;;14.30;99.90;;;;;;5073122;28;20458;-72
2021/09/14 05:37:17;;;;;;;7.23;6.50;;;14.30;99.90;;;;;;5072494;28;20486;-72
2021/09/14 05:39:43;;;;;;;7.37;6.63;;;14.30;99.90;;;;;;5073085;28;20553;-72
2021/09/14 05:42:10;;;;;;;7.63;6.50;;;14.40;99.90;;;;;;5072980;28;20869;-72
2021/09/14 05:44:37;;;;;;;8.30;6.63;;;14.40;99.90;;;;;;5072905;28;20470;-71
2021/09/14 05:47:05;;;;;;;7.33;6.63;;;14.40;99.90;;;;;;5072239;28;20462;-73
2021/09/14 05:49:32;;;;;;;8.17;6.83;;;14.60;99.90;;;;;;5072895;28;20463;-72
2021/09/14 05:52:00;;;;;;;8.60;7.20;;;14.60;99.90;;;;;;5072819;28;20458;-72
2021/09/14 05:54:26;;;;;;;8.27;7.47;;;14.70;99.90;;;;;;5072624;28;20458;-72
2021/09/14 05:56:53;;;;;;;8.23;7.27;;;14.80;99.90;;;;;;5071790;28;20463;-72
2021/09/14 05:59:20;;;;;;;7.60;6.80;;;14.90;99.90;;;;;;5072674;28;20462;-72
2021/09/14 06:01:46;;;;;;;8.33;7.37;;;15.00;99.90;;;;;;5072478;28;20459;-72
2021/09/14 06:04:13;;;;;;;8.60;7.80;;;15.00;99.90;;;;;;5072500;28;20468;-73
2021/09/14 06:06:40;;;;;;;8.00;7.30;;;15.10;99.90;;;;;;5071832;28;20946;-72
2021/09/14 06:09:09;;;;;;;8.30;7.50;;;15.10;99.90;;;;;;5072691;28;20480;-72
2021/09/14 06:11:36;;;;;;;7.30;6.70;;;15.20;99.90;;;;;;5072471;28;20503;-72
2021/09/14 06:14:03;;;;;;;7.40;6.70;;;15.20;99.90;;;;;;5072191;28;20947;-72
2021/09/14 06:16:30;;;;;;;9.47;7.97;;;15.30;99.90;;;;;;5071836;28;20459;-72
2021/09/14 06:18:56;;;;;;;8.47;7.67;;;15.30;99.90;;;;;;5072024;28;20487;-73
2021/09/14 06:21:23;;;;;;;9.30;8.50;;;15.40;99.90;;;;;;5071378;28;20473;-73
2021/09/14 06:23:50;;;;;;;9.17;8.23;;;15.50;99.90;;;;;;5065069;28;20466;-73
2021/09/14 06:26:19;;;;;;;9.20;7.30;;;15.70;99.90;;;;;;5068901;28;20455;-73
2021/09/14 06:28:46;;;;;;;8.63;7.93;;;15.70;99.90;;;;;;5070397;28;20493;-74
2021/09/14 06:31:14;;;;;;;8.00;7.20;;;15.90;99.90;;;;;;5070673;28;21031;-73
2021/09/14 06:33:41;;;;;;;7.40;6.70;;;15.90;99.90;;;;;;5070469;28;20473;-73
2021/09/14 06:36:08;;;;;;;8.90;7.97;;;16.00;99.90;;;;;;5070117;28;20462;-73
2021/09/14 06:38:37;;;;;;;8.47;7.13;;;16.20;99.90;;;;;;5070362;28;21009;-73
2021/09/14 06:41:05;;;;;;;8.00;7.30;;;16.30;99.90;;;;;;5070564;28;20466;-72
2021/09/14 06:43:33;;;;;;;7.87;6.60;;;16.50;99.90;;;;;;5070534;28;20969;-72
2021/09/14 06:46:00;;;;;;;10.50;7.43;;;16.60;99.90;;;;;;5065104;28;20855;-72
2021/09/14 06:48:28;;;;;;;7.00;6.33;;;16.70;99.90;;;;;;5067247;28;20786;-73
2021/09/14 06:50:56;;;;;;;7.30;6.10;;;16.80;99.90;;;;;;5090280;28;20486;-73
2021/09/14 06:53:23;;;;;;;8.43;6.97;;;17.00;99.90;;;;;;5089965;28;21089;-73
2021/09/14 06:55:50;;;;;;;8.10;7.30;;;17.10;99.90;;;;;;5089987;28;21078;-73
2021/09/14 06:58:18;;;;;;;7.60;6.90;;;17.20;99.90;;;;;;5090126;28;20584;-73
2021/09/14 07:00:46;;;;;;;6.97;6.30;;;17.40;99.90;;;;;;5090506;28;20518;-73
2021/09/14 07:03:14;;;;;;;7.50;6.67;;;17.50;99.90;;;;;;5090991;28;20468;-74
2021/09/14 07:05:41;;;;;;;6.90;6.27;;;17.60;99.90;;;;;;5089716;28;20469;-73
2021/09/14 07:08:09;;;;;;;6.40;5.90;;;17.70;99.90;;;;;;5090348;28;21307;-73
2021/09/14 07:10:36;;;;;;;6.53;5.97;;;17.90;99.90;;;;;;5090292;28;20461;-73
2021/09/14 07:13:03;;;;;;;5.70;4.83;;;18.00;99.90;;;;;;5090518;28;20465;-73
2021/09/14 07:15:30;;;;;;;5.90;5.37;;;18.10;99.90;;;;;;5090614;28;20544;-73
2021/09/14 07:17:58;;;;;;;6.97;5.73;;;18.20;99.90;;;;;;5089024;28;20866;-73
2021/09/14 07:20:25;;;;;;;6.07;4.73;;;18.30;99.90;;;;;;5091261;28;20469;-73
2021/09/14 07:22:52;;;;;;;5.83;5.23;;;18.40;99.90;;;;;;5088013;28;20836;-73
2021/09/14 07:25:19;;;;;;;6.20;5.60;;;18.60;99.90;;;;;;5091498;28;20465;-73
2021/09/14 07:27:46;;;;;;;6.03;5.40;;;18.70;99.90;;;;;;5090499;28;20523;-73
2021/09/14 07:30:13;;;;;;;5.70;5.20;;;18.90;99.90;;;;;;5091260;28;20870;-73
2021/09/14 07:32:40;;;;;;;6.17;5.67;;;19.00;99.90;;;;;;5090571;28;20465;-73
2021/09/14 07:35:09;;;;;;;6.83;6.00;;;19.10;99.90;;;;;;5091574;28;20465;-73
2021/09/14 07:37:36;;;;;;;6.50;5.90;;;19.20;99.90;;;;;;5090552;28;20482;-73
2021/09/14 07:40:03;;;;;;;7.30;5.60;;;19.30;99.90;;;;;;5091343;28;20465;-72
2021/09/14 07:42:29;;;;;;;7.40;6.13;;;19.50;99.90;;;;;;5091250;28;20462;-72
2021/09/14 07:44:56;;;;;;;6.03;5.43;;;19.60;99.90;;;;;;5091230;28;20473;-73
2021/09/14 07:47:23;;;;;;;6.40;5.57;;;19.80;99.90;;;;;;5090614;28;20881;-72
2021/09/14 07:49:50;;;;;;;5.20;4.80;;;20.00;99.90;;;;;;5090958;28;20948;-73
2021/09/14 07:52:18;;;;;;;5.90;5.30;;;20.20;99.90;;;;;;5091259;28;20468;-73
2021/09/14 07:54:44;;;;;;;5.50;5.00;;;20.40;99.90;;;;;;5090881;28;20465;-73
2021/09/14 07:57:11;;;;;;;5.57;5.10;;;20.50;99.90;;;;;;5090669;28;20482;-73
2021/09/14 07:59:38;;;;;;;6.30;4.90;;;20.70;99.90;;;;;;5090795;28;20847;-73
2021/09/14 08:02:04;;;;;;;5.30;4.90;;;20.70;99.90;;;;;;5091116;28;20465;-73
2021/09/14 08:04:31;;;;;;;7.03;5.50;;;20.70;99.90;;;;;;5091018;28;20462;-73
2021/09/14 08:06:58;;;;;;;6.00;5.00;;;20.70;99.90;;;;;;5090196;28;20457;-73
2021/09/14 08:09:28;;;;;;;5.10;4.60;;;20.80;99.90;;;;;;5090953;28;20878;-73
2021/09/14 08:11:55;;;;;;;6.43;5.00;;;21.00;99.90;;;;;;5090814;28;20457;-73
2021/09/14 08:14:22;;;;;;;6.07;5.57;;;21.10;99.90;;;;;;5090748;28;20957;-73
2021/09/14 08:16:49;;;;;;;6.03;5.03;;;21.20;99.90;;;;;;5090252;28;20457;-73
2021/09/14 08:19:16;;;;;;;6.13;5.47;;;21.30;99.90;;;;;;5090964;28;20486;-73
2021/09/14 08:21:42;;;;;;;5.23;4.73;;;21.40;99.90;;;;;;5090704;28;20832;-73
2021/09/14 08:24:11;;;;;;;5.40;5.00;;;21.40;99.90;;;;;;5090974;28;20457;-73
2021/09/14 08:26:40;;;;;;;6.53;5.07;;;21.50;99.90;;;;;;5089983;28;20462;-73
2021/09/14 08:29:07;;;;;;;5.90;5.00;;;21.60;99.90;;;;;;5090773;28;20481;-73
2021/09/14 08:31:34;;;;;;;5.27;4.57;;;21.80;99.90;;;;;;5090486;28;20465;-74
2021/09/14 08:34:00;;;;;;;5.50;5.03;;;21.90;99.90;;;;;;5090481;28;20461;-73
2021/09/14 08:36:27;;;;;;;5.57;5.07;;;22.00;99.90;;;;;;5090015;28;20458;-73
2021/09/14 08:38:55;;;;;;;5.20;4.43;;;22.20;99.90;;;;;;5090432;28;20481;-74
2021/09/14 08:41:22;;;;;;;5.20;4.70;;;22.40;99.90;;;;;;5090660;28;20466;-73
2021/09/14 08:43:51;;;;;;;5.53;4.80;;;22.50;99.90;;;;;;5092411;28;20468;-73
2021/09/14 08:46:20;;;;;;;4.97;4.40;;;22.50;99.90;;;;;;5094225;28;20495;-73
2021/09/14 08:48:47;;;;;;;5.23;4.70;;;22.70;99.90;;;;;;5094341;28;20482;-73
2021/09/14 08:51:14;;;;;;;5.27;4.77;;;22.90;99.90;;;;;;5094706;28;20531;-73
2021/09/14 08:53:41;;;;;;;6.10;5.37;;;23.00;99.90;;;;;;5094194;28;20949;-74
2021/09/14 08:56:10;;;;;;;5.10;4.70;;;23.10;99.90;;;;;;5094019;28;20468;-73
2021/09/14 08:58:37;;;;;;;5.07;4.67;;;23.10;99.90;;;;;;5094223;28;21007;-73
2021/09/14 09:01:10;;;;;;;5.27;4.77;;;23.20;99.90;;;;;;5094525;28;20461;-73
2021/09/14 09:03:38;;;;;;;5.23;4.73;;;23.30;99.90;;;;;;5094193;28;20454;-73
2021/09/14 09:06:04;;;;;;;6.07;5.47;;;23.40;99.90;;;;;;5093966;28;20487;-73
2021/09/14 09:08:32;;;;;;;4.80;4.40;;;23.60;99.90;;;;;;5094203;28;20884;-73
2021/09/14 09:11:00;;;;;;;5.33;4.83;;;23.70;99.90;;;;;;5094392;28;20468;-73
2021/09/14 09:13:28;;;;;;;4.93;4.53;;;23.90;99.90;;;;;;5094268;28;20458;-73
2021/09/14 09:15:54;;;;;;;5.00;4.60;;;24.00;99.90;;;;;;5093410;28;20461;-73
2021/09/14 09:18:22;;;;;;;4.83;4.40;;;24.20;99.90;;;;;;5094068;28;20906;-73
2021/09/14 09:20:50;;;;;;;5.30;4.83;;;24.30;99.90;;;;;;5093941;28;20462;-74
2021/09/14 09:23:21;;;;;;;5.70;4.80;;;24.40;99.90;;;;;;5094041;28;20479;-72
2021/09/14 09:25:48;;;;;;;5.13;4.63;;;24.60;99.90;;;;;;5093612;28;20457;-73
2021/09/14 09:28:20;;;;;;;5.33;4.93;;;24.60;99.90;;;;;;5093888;28;21011;-73
2021/09/14 09:30:54;;;;;;;5.10;4.70;;;24.60;99.90;;;;;;5093836;28;20497;-73
2021/09/14 09:33:26;;;;;;;5.10;4.63;;;24.70;99.90;;;;;;5093847;28;20465;-73
2021/09/14 09:35:59;;;;;;;4.97;4.50;;;24.80;99.90;;;;;;5093075;28;20469;-72
2021/09/14 09:38:25;;;;;;;5.00;4.60;;;24.90;99.90;;;;;;5093617;28;20538;-73
2021/09/14 09:40:52;;;;;;;4.93;4.53;;;24.90;99.90;;;;;;5093555;28;20494;-73
2021/09/14 09:43:28;;;;;;;5.23;4.73;;;24.90;99.90;;;;;;5093719;28;20458;-73
2021/09/14 09:46:04;;;;;;;6.10;4.97;;;24.90;99.90;;;;;;5092961;28;20461;-73
2021/09/14 09:48:34;;;;;;;6.03;4.70;;;25.10;99.90;;;;;;5093478;28;20484;-72
2021/09/14 09:51:02;;;;;;;5.87;4.90;;;25.10;99.90;;;;;;5093392;28;20468;-73
2021/09/14 09:53:28;;;;;;;4.60;4.20;;;25.30;99.90;;;;;;5092822;28;20465;-73
2021/09/14 09:55:57;;;;;;;5.57;5.07;;;25.40;99.90;;;;;;5092730;28;20450;-74
2021/09/14 09:58:24;;;;;;;4.77;4.27;;;25.50;99.90;;;;;;5093197;28;20535;-74
2021/09/14 10:00:56;;;;;;;5.57;5.07;;;25.60;99.90;;;;;;5093193;28;20480;-73
2021/09/14 10:03:27;;;;;;;5.70;5.20;;;25.70;99.90;;;;;;5093204;28;20462;-73
2021/09/14 10:05:58;;;;;;;6.30;5.03;;;25.80;99.90;;;;;;5093361;28;20461;-73
2021/09/14 10:08:27;;;;;;;6.00;4.77;;;25.90;99.90;;;;;;5093292;28;20479;-73
2021/09/14 10:10:55;;;;;;;5.30;4.80;;;25.90;99.90;;;;;;5093032;28;20458;-73
2021/09/14 10:13:30;;;;;;;4.97;4.43;;;26.00;99.90;;;;;;5081048;28;20976;-73
2021/09/14 10:15:57;;;;;;;5.43;4.93;;;26.10;99.90;;;;;;5071419;28;20462;-73
2021/09/14 10:18:27;;;;;;;5.17;4.67;;;26.10;99.90;;;;;;5071006;28;20482;-72
2021/09/14 10:20:54;;;;;;;4.90;4.50;;;26.20;99.90;;;;;;5071565;28;20826;-73
2021/09/14 10:23:24;;;;;;;6.87;5.03;;;26.20;99.90;;;;;;5072617;28;20467;-73
2021/09/14 10:26:03;;;;;;;5.30;4.80;;;26.20;99.90;;;;;;5072508;28;20461;-73
2021/09/14 10:28:42;;;;;;;4.80;4.40;;;26.30;99.90;;;;;;5072483;28;20535;-73
2021/09/14 10:33:36;;;;;;;5.23;4.70;;;26.30;99.90;;;;;;5049311;28;20771;-67
2021/09/14 10:36:13;;;;;;;5.00;4.60;;;26.30;99.90;;;;;;5051891;28;20474;-67
2021/09/14 10:38:48;;;;;;;5.00;4.60;;;26.40;99.90;;;;;;5052081;28;20515;-67
2021/09/14 10:41:16;;;;;;;5.33;4.93;;;26.50;99.90;;;;;;5052278;28;20463;-67
2021/09/14 10:43:54;;;;;;;5.27;4.87;;;26.50;99.90;;;;;;5052020;28;20499;-67
2021/09/14 10:46:22;;;;;;;4.80;4.40;;;26.60;99.90;;;;;;5051505;28;20497;-67
2021/09/14 10:48:52;;;;;;;6.17;4.93;;;26.70;99.90;;;;;;5052268;28;20479;-67
2021/09/14 10:51:19;;;;;;;6.80;5.03;;;26.70;99.90;;;;;;5052080;28;20470;-67
2021/09/14 10:53:55;;;;;;;5.00;4.60;;;26.70;99.90;;;;;;5051780;28;20459;-67
2021/09/14 10:56:22;;;;;;;5.37;4.87;;;26.70;99.90;;;;;;5051477;28;20569;-67
2021/09/14 10:58:49;;;;;;;4.77;4.37;;;26.80;99.90;;;;;;5052059;28;20490;-67
2021/09/14 11:01:22;;;;;;;4.93;4.53;;;27.00;99.90;;;;;;5052031;28;20832;-67
2021/09/14 11:03:50;;;;;;;5.87;5.23;;;27.10;99.90;;;;;;5051603;28;20966;-67
2021/09/14 11:06:17;;;;;;;4.90;4.50;;;27.10;99.90;;;;;;5050846;28;20500;-67
2021/09/14 11:08:45;;;;;;;5.80;5.30;;;27.30;99.90;;;;;;5051545;28;20479;-67
2021/09/14 11:11:17;;;;;;;5.17;4.77;;;27.40;99.90;;;;;;5051750;28;20467;-67
2021/09/14 11:13:43;;;;;;;5.73;5.10;;;27.40;99.90;;;;;;5051464;28;20488;-67
2021/09/14 11:16:10;;;;;;;5.37;4.87;;;27.50;99.90;;;;;;5051031;28;20467;-67
2021/09/14 11:18:37;;;;;;;5.80;4.93;;;27.50;99.90;;;;;;5051028;28;20554;-67
2021/09/14 11:21:08;;;;;;;5.53;4.70;;;27.50;99.90;;;;;;5051496;28;20464;-67
2021/09/14 11:23:36;;;;;;;5.23;4.83;;;27.60;99.90;;;;;;5050976;28;20467;-67
2021/09/14 11:26:04;;;;;;;4.73;4.33;;;27.50;99.90;;;;;;5050787;28;20465;-67
2021/09/14 11:28:32;;;;;;;4.57;4.23;;;27.40;99.90;;;;;;5050956;28;20483;-67
2021/09/14 11:31:01;;;;;;;5.10;4.70;;;27.30;99.90;;;;;;5051291;28;20456;-67
2021/09/14 11:33:29;;;;;;;5.07;4.67;;;27.30;99.90;;;;;;5069531;28;20476;-67
2021/09/14 11:35:58;;;;;;;5.10;4.70;;;27.20;99.90;;;;;;5071133;28;20508;-67
2021/09/14 11:38:25;;;;;;;5.77;5.17;;;27.10;99.90;;;;;;5070516;28;20889;-67
2021/09/14 11:40:54;;;;;;;6.80;4.73;;;27.10;99.90;;;;;;5071100;28;20497;-67
2021/09/14 11:43:22;;;;;;;5.10;4.70;;;27.00;99.90;;;;;;5070800;28;20462;-67
2021/09/14 11:45:52;;;;;;;5.80;4.83;;;27.00;99.90;;;;;;5071208;28;20836;-67
2021/09/14 11:48:22;;;;;;;5.00;4.60;;;27.00;99.90;;;;;;5070353;28;20484;-67
2021/09/14 11:50:49;;;;;;;5.20;4.80;;;27.10;99.90;;;;;;5071017;28;20462;-67
2021/09/14 11:53:18;;;;;;;5.00;4.60;;;27.10;99.90;;;;;;5070975;28;20459;-67
2021/09/14 11:55:46;;;;;;;4.90;4.40;;;27.30;99.90;;;;;;5070854;28;20461;-67
2021/09/14 11:58:14;;;;;;;5.10;4.70;;;27.50;99.90;;;;;;5070304;28;20486;-67
2021/09/14 12:00:43;;;;;;;5.37;4.53;;;27.50;99.90;;;;;;5071012;28;20487;-67
2021/09/14 12:03:14;;;;;;;5.03;4.50;;;27.30;99.90;;;;;;5070899;28;20513;-67
2021/09/14 12:05:41;;;;;;;5.00;4.60;;;26.90;99.90;;;;;;5070606;28;20537;-67
2021/09/14 12:08:11;;;;;;;5.07;4.67;;;26.50;99.90;;;;;;5070099;28;20486;-67
2021/09/14 12:10:45;;;;;;;5.83;4.47;;;26.40;99.90;;;;;;5070774;28;20980;-67
2021/09/14 12:13:19;;;;;;;5.20;4.70;;;26.20;99.90;;;;;;5070598;28;20453;-67
2021/09/14 12:15:47;;;;;;;5.40;4.90;;;26.00;99.90;;;;;;5070405;28;20861;-67
2021/09/14 12:18:17;;;;;;;5.70;4.80;;;26.00;99.90;;;;;;5068940;28;20934;-67
2021/09/14 12:20:45;;;;;;;5.40;4.90;;;25.90;99.90;;;;;;5070682;28;20482;-67
2021/09/14 12:23:12;;;;;;;5.90;4.30;;;25.80;99.90;;;;;;5070464;28;20694;-67
2021/09/14 12:25:39;;;;;;;4.90;4.40;;;25.90;99.90;;;;;;5070936;28;20466;-68
2021/09/14 12:28:06;;;;;;;5.27;4.77;;;26.00;99.90;;;;;;5070119;28;20495;-67
2021/09/14 12:30:33;;;;;;;5.33;4.93;;;26.10;99.90;;;;;;5070309;28;20521;-67
2021/09/14 12:32:59;;;;;;;5.03;4.63;;;26.30;99.90;;;;;;5070190;28;20470;-67
2021/09/14 12:35:28;;;;;;;5.30;4.80;;;26.30;99.90;;;;;;5070430;28;20462;-67
2021/09/14 12:37:54;;;;;;;5.10;4.60;;;26.40;99.90;;;;;;5070078;28;20815;-68
2021/09/14 12:40:21;;;;;;;6.27;4.80;;;26.30;99.90;;;;;;5069957;28;21004;-68
2021/09/14 12:42:48;;;;;;;9.23;4.40;;;26.20;99.90;;;;;;5070191;28;20469;-67
2021/09/14 12:45:14;;;;;;;4.93;4.53;;;26.10;99.90;;;;;;5070168;28;20455;-67
2021/09/14 12:47:41;;;;;;;5.10;4.60;;;26.00;99.90;;;;;;5069639;28;20700;-67
2021/09/14 12:50:09;;;;;;;4.90;4.20;;;26.00;99.90;;;;;;5070054;28;20856;-68
2021/09/14 12:52:37;;;;;;;5.20;4.80;;;26.00;99.90;;;;;;5069952;28;20462;-67
2021/09/14 12:55:04;;;;;;;4.30;3.90;;;26.10;99.90;;;;;;5070274;28;20880;-67
2021/09/14 12:57:31;;;;;;;5.50;4.47;;;26.20;99.90;;;;;;5069296;28;20490;-67
2021/09/14 12:59:58;;;;;;;5.53;5.03;;;26.50;99.90;;;;;;5069984;28;20491;-68
2021/09/14 13:02:24;;;;;;;5.23;4.27;;;26.80;99.90;;;;;;5069704;28;20458;-68
2021/09/14 13:04:51;;;;;;;8.27;5.10;;;27.10;99.90;;;;;;5070096;28;20467;-67
2021/09/14 13:07:18;;;;;;;5.50;5.00;;;27.40;99.90;;;;;;5069209;28;20489;-67
2021/09/14 13:09:46;;;;;;;5.10;4.60;;;27.60;99.90;;;;;;5070600;28;20459;-67
2021/09/14 13:12:19;;;;;;;6.37;4.53;;;27.70;99.90;;;;;;5069869;28;20851;-67
2021/09/14 13:17:31;;;;;;;5.87;5.37;;;27.70;99.90;;;;;;5069416;28;20593;-67
2021/09/14 13:19:58;;;;;;;5.93;5.33;;;27.80;99.90;;;;;;5069971;28;20489;-68
2021/09/14 13:22:24;;;;;;;7.27;5.07;;;27.90;99.90;;;;;;5069627;28;20465;-67
2021/09/14 13:24:52;;;;;;;4.83;4.43;;;27.90;99.90;;;;;;5069950;28;20463;-67
2021/09/14 13:27:19;;;;;;;5.50;5.00;;;27.90;99.90;;;;;;5068961;28;20482;-67
2021/09/14 13:29:46;;;;;;;6.63;5.70;;;27.60;99.90;;;;;;5071363;28;20463;-67
2021/09/14 13:32:12;;;;;;;5.53;5.10;;;27.40;99.90;;;;;;5073163;28;20463;-68
2021/09/14 13:34:39;;;;;;;5.37;4.83;;;27.10;99.90;;;;;;5073072;28;20474;-67
2021/09/14 13:37:06;;;;;;;6.10;5.50;;;26.90;99.90;;;;;;5072677;28;20462;-67
2021/09/14 13:39:33;;;;;;;5.80;5.07;;;26.80;99.90;;;;;;5072974;28;20470;-67
2021/09/14 13:42:01;;;;;;;5.73;5.23;;;26.70;99.90;;;;;;5073143;28;20962;-67
2021/09/14 13:47:13;;;;;;;5.90;5.30;;;26.60;99.90;;;;;;5072775;28;20516;-67
2021/09/14 13:49:39;;;;;;;6.07;5.47;;;26.70;99.90;;;;;;5073252;28;20462;-67